createdAt,value
2019-01-22T00:02:05.201Z,40.60
2019-01-22T00:04:35.279Z,39.20
2019-01-22T00:07:04.981Z,41.53
2019-01-22T00:09:35.156Z,41.85
2019-01-22T00:12:06.095Z,43.85
2019-01-22T00:14:35.733Z,42.65
2019-01-22T00:17:05.473Z,40.85
2019-01-22T00:19:35.086Z,42.30
2019-01-22T00:22:05.349Z,40.40
2019-01-22T00:24:35.095Z,43.20
2019-01-22T00:27:05.008Z,42.90
2019-01-22T00:29:34.567Z,43.63
2019-01-22T00:32:04.627Z,42.73
2019-01-22T00:34:34.208Z,45.85
2019-01-22T00:37:04.219Z,42.48
2019-01-22T00:39:33.948Z,44.00
2019-01-22T00:42:03.563Z,42.25
2019-01-22T00:44:33.377Z,41.50
2019-01-22T00:47:03.000Z,42.27
2019-01-22T00:49:33.379Z,42.98
2019-01-22T00:52:03.021Z,42.65
2019-01-22T00:54:32.703Z,42.03
2019-01-22T00:57:02.712Z,41.40
2019-01-22T00:59:33.387Z,43.70
2019-01-22T01:02:03.290Z,41.48
2019-01-22T01:04:33.024Z,42.67
2019-01-22T01:07:02.806Z,42.17
2019-01-22T01:09:33.392Z,40.45
2019-01-22T01:12:03.023Z,40.30
2019-01-22T01:14:32.678Z,40.65
2019-01-22T01:17:02.368Z,40.78
2019-01-22T01:19:32.488Z,40.35
2019-01-22T01:22:03.197Z,42.00
2019-01-22T01:24:32.836Z,39.33
2019-01-22T01:27:02.411Z,40.58
2019-01-22T01:29:32.059Z,42.55
2019-01-22T01:32:01.617Z,44.00
2019-01-22T01:34:32.368Z,38.45
2019-01-22T01:37:02.000Z,41.13
2019-01-22T01:39:32.087Z,39.23
2019-01-22T01:42:01.895Z,39.90
2019-01-22T01:44:32.233Z,39.60
2019-01-22T01:47:01.863Z,38.25
2019-01-22T01:49:31.654Z,39.98
2019-01-22T01:52:01.282Z,39.33
2019-01-22T01:54:31.273Z,41.58
2019-01-22T01:57:01.178Z,39.80
2019-01-22T01:59:31.332Z,42.00
2019-01-22T02:02:01.599Z,39.38
2019-01-22T02:04:31.275Z,40.25
2019-01-22T02:07:01.228Z,40.43
2019-01-22T02:09:30.831Z,41.68
2019-01-22T02:12:00.464Z,38.70
2019-01-22T02:14:36.112Z,38.15
2019-01-22T02:17:34.700Z,39.70
2019-01-22T02:20:29.332Z,37.80
2019-01-22T02:23:22.332Z,40.25
2019-01-22T02:26:50.979Z,37.30
2019-01-22T02:29:54.803Z,37.50
2019-01-22T02:33:13.996Z,37.03
2019-01-22T02:35:55.275Z,37.60
2019-01-22T02:39:06.917Z,39.95
2019-01-22T02:42:04.298Z,36.93
2019-01-22T02:45:14.942Z,39.18
2019-01-22T02:48:08.976Z,39.73
2019-01-22T02:51:05.494Z,39.63
2019-01-22T02:54:14.013Z,38.33
2019-01-22T02:57:14.228Z,39.73
2019-01-22T03:00:23.270Z,38.60
2019-01-22T03:03:29.292Z,39.73
2019-01-22T03:06:40.572Z,40.85
2019-01-22T03:09:30.217Z,36.00
2019-01-22T03:12:13.924Z,38.35
2019-01-22T03:15:11.499Z,37.83
2019-01-22T03:18:22.091Z,38.73
2019-01-22T03:21:31.337Z,39.03
2019-01-22T03:24:40.598Z,37.73
2019-01-22T03:27:17.165Z,37.20
2019-01-22T03:30:24.998Z,37.93
2019-01-22T03:33:21.866Z,38.90
2019-01-22T03:36:17.580Z,39.00
2019-01-22T03:39:16.120Z,38.28
2019-01-22T03:42:14.778Z,39.10
2019-01-22T03:45:13.849Z,38.75
2019-01-22T03:47:58.255Z,37.40
2019-01-22T03:50:54.703Z,36.28
2019-01-22T03:54:00.384Z,38.67
2019-01-22T03:57:07.918Z,38.78
2019-01-22T03:59:37.521Z,36.85
2019-01-22T04:02:08.843Z,37.17
2019-01-22T04:04:38.449Z,38.80
2019-01-22T04:07:08.158Z,37.13
2019-01-22T04:10:02.074Z,38.15
2019-01-22T04:12:32.138Z,40.88
2019-01-22T04:15:02.735Z,39.00
2019-01-22T04:17:32.395Z,37.80
2019-01-22T04:20:01.989Z,38.02
2019-01-22T04:22:40.678Z,39.10
2019-01-22T04:25:20.377Z,37.03
2019-01-22T04:28:58.239Z,40.78
2019-01-22T04:31:55.286Z,37.85
2019-01-22T04:35:01.276Z,37.63
2019-01-22T04:38:11.951Z,38.50
2019-01-22T04:41:04.243Z,37.08
2019-01-22T04:44:22.300Z,36.65
2019-01-22T04:47:26.932Z,35.05
2019-01-22T04:50:21.086Z,38.90
2019-01-22T04:53:14.806Z,37.95
2019-01-22T04:56:22.898Z,37.55
2019-01-22T04:59:34.460Z,36.05
2019-01-22T05:02:54.383Z,39.08
2019-01-22T05:06:10.817Z,37.40
2019-01-22T05:08:58.499Z,37.93
2019-01-22T05:12:14.403Z,37.28
2019-01-22T05:15:23.733Z,36.63
2019-01-22T05:18:43.016Z,37.23
2019-01-22T05:21:46.887Z,35.25
2019-01-22T05:25:00.535Z,36.85
2019-01-22T05:28:14.838Z,37.67
2019-01-22T05:30:54.258Z,38.48
2019-01-22T05:33:36.431Z,37.50
2019-01-22T05:36:52.421Z,38.85
2019-01-22T05:40:06.845Z,36.33
2019-01-22T05:43:24.711Z,38.45
2019-01-22T05:46:50.574Z,37.13
2019-01-22T05:49:55.641Z,35.15
2019-01-22T05:53:02.016Z,35.33
2019-01-22T05:55:36.330Z,39.40
2019-01-22T05:59:00.400Z,38.92
2019-01-22T06:01:39.479Z,38.70
2019-01-22T06:04:42.608Z,39.23
2019-01-22T06:07:37.732Z,37.35
2019-01-22T06:10:48.724Z,34.40
2019-01-22T06:13:45.127Z,36.30
2019-01-22T06:16:41.676Z,37.13
2019-01-22T06:19:36.951Z,36.20
2019-01-22T06:22:41.930Z,35.48
2019-01-22T06:25:54.467Z,34.27
2019-01-22T06:29:02.202Z,34.58
2019-01-22T06:31:49.796Z,38.78
2019-01-22T06:34:46.383Z,36.95
2019-01-22T06:37:34.376Z,35.48
2019-01-22T06:40:54.160Z,38.92
2019-01-22T06:43:55.030Z,36.42
2019-01-22T06:47:03.124Z,37.03
2019-01-22T06:50:17.386Z,37.58
2019-01-22T06:53:14.245Z,37.85
2019-01-22T06:56:20.443Z,37.80
2019-01-22T06:59:41.266Z,40.03
2019-01-22T07:02:48.984Z,38.33
2019-01-22T07:05:50.724Z,34.78
2019-01-22T07:09:10.443Z,38.58
2019-01-22T07:11:57.920Z,37.42
2019-01-22T07:15:07.428Z,36.75
2019-01-22T07:17:50.150Z,36.45
2019-01-22T07:21:05.739Z,37.10
2019-01-22T07:24:05.512Z,40.92
2019-01-22T07:27:11.581Z,38.02
2019-01-22T07:30:33.093Z,39.38
2019-01-22T07:33:23.084Z,38.55
2019-01-22T07:36:18.232Z,39.15
2019-01-22T07:39:11.295Z,38.73
2019-01-22T07:42:16.109Z,39.03
2019-01-22T07:45:19.723Z,37.33
2019-01-22T07:47:58.841Z,37.83
2019-01-22T07:50:53.303Z,39.90
2019-01-22T07:54:01.264Z,36.10
2019-01-22T07:57:22.941Z,38.13
2019-01-22T08:00:18.287Z,37.58
2019-01-22T08:03:45.068Z,37.58
2019-01-22T08:06:38.516Z,39.25
2019-01-22T08:09:52.483Z,36.70
2019-01-22T08:12:55.874Z,41.05
2019-01-22T08:16:04.815Z,38.92
2019-01-22T08:18:56.863Z,39.53
2019-01-22T08:21:59.315Z,38.95
2019-01-22T08:25:08.734Z,40.55
2019-01-22T08:28:21.193Z,39.60
2019-01-22T08:31:19.089Z,37.08
2019-01-22T08:34:08.759Z,41.77
2019-01-22T08:37:19.032Z,39.13
2019-01-22T08:40:12.074Z,37.67
2019-01-22T08:43:01.665Z,36.77
2019-01-22T08:45:45.430Z,40.88
2019-01-22T08:49:00.876Z,40.12
2019-01-22T08:52:13.293Z,39.70
2019-01-22T08:55:33.548Z,41.05
2019-01-22T08:58:57.103Z,36.45
2019-01-22T09:02:12.216Z,41.28
2019-01-22T09:05:15.079Z,39.38
2019-01-22T09:08:23.997Z,37.50
2019-01-22T09:11:42.483Z,41.20
2019-01-22T09:14:47.027Z,37.85
2019-01-22T09:17:51.221Z,38.33
2019-01-22T09:21:05.370Z,38.58
2019-01-22T09:24:14.256Z,37.17
2019-01-22T09:27:07.247Z,41.58
2019-01-22T09:29:46.512Z,36.50
2019-01-22T09:33:00.723Z,39.35
2019-01-22T09:36:03.851Z,38.42
2019-01-22T09:38:34.258Z,38.05
2019-01-22T09:41:04.052Z,38.30
2019-01-22T09:43:34.447Z,37.33
2019-01-22T09:46:04.467Z,34.40
2019-01-22T09:48:35.214Z,36.35
2019-01-22T09:51:05.100Z,36.88
2019-01-22T09:53:35.467Z,37.42
2019-01-22T09:56:05.540Z,39.63
2019-01-22T09:58:36.048Z,38.33
2019-01-22T10:01:05.950Z,40.08
2019-01-22T10:03:35.617Z,35.90
2019-01-22T10:06:05.872Z,36.73
2019-01-22T10:08:35.838Z,33.95
2019-01-22T10:11:08.090Z,34.13
2019-01-22T10:13:38.980Z,35.68
2019-01-22T10:16:10.281Z,32.78
2019-01-22T10:18:41.422Z,34.65
2019-01-22T10:21:14.091Z,32.58
2019-01-22T10:23:46.792Z,32.10
2019-01-22T10:26:16.866Z,35.00
2019-01-22T10:28:47.641Z,33.08
2019-01-22T10:31:17.948Z,32.17
2019-01-22T10:33:48.343Z,33.90
2019-01-22T10:36:21.142Z,34.13
2019-01-22T10:38:51.996Z,32.15
2019-01-22T10:41:23.036Z,34.33
2019-01-22T10:43:53.397Z,34.08
2019-01-22T10:46:24.753Z,32.40
2019-01-22T10:48:55.130Z,34.23
2019-01-22T10:51:25.862Z,30.08
2019-01-22T10:53:56.395Z,29.80
2019-01-22T10:56:26.103Z,30.10
2019-01-22T10:58:56.644Z,29.67
2019-01-22T11:01:26.517Z,32.53
2019-01-22T11:03:57.049Z,30.62
2019-01-22T11:06:27.465Z,29.80
2019-01-22T11:09:00.686Z,31.93
2019-01-22T11:11:32.150Z,31.35
2019-01-22T11:14:03.393Z,30.92
2019-01-22T11:16:33.810Z,30.43
2019-01-22T11:19:04.523Z,29.00
2019-01-22T11:21:35.970Z,30.55
2019-01-22T11:24:06.375Z,30.68
2019-01-22T11:26:36.728Z,29.35
2019-01-22T11:29:07.399Z,29.70
2019-01-22T11:31:38.621Z,30.00
2019-01-22T11:34:08.448Z,29.57
2019-01-22T11:36:38.511Z,28.92
2019-01-22T11:39:10.934Z,29.90
2019-01-22T11:41:42.064Z,27.98
2019-01-22T11:44:11.707Z,28.57
2019-01-22T11:46:42.201Z,29.90
2019-01-22T11:49:13.848Z,28.15
2019-01-22T11:51:44.691Z,27.42
2019-01-22T11:54:15.157Z,28.62
2019-01-22T11:56:45.747Z,29.25
2019-01-22T11:59:16.513Z,29.82
2019-01-22T12:01:46.312Z,29.12
2019-01-22T12:04:16.384Z,28.80
2019-01-22T12:06:46.046Z,27.40
2019-01-22T12:09:16.074Z,30.25
2019-01-22T12:11:46.318Z,31.05
2019-01-22T12:14:16.812Z,30.30
2019-01-22T12:16:46.504Z,29.27
2019-01-22T12:19:16.752Z,31.52
2019-01-22T12:21:47.959Z,28.57
2019-01-22T12:24:18.199Z,28.10
2019-01-22T12:26:48.139Z,28.32
2019-01-22T12:29:17.939Z,27.20
2019-01-22T12:31:49.407Z,26.95
2019-01-22T12:34:19.203Z,30.50
2019-01-22T12:36:49.524Z,27.35
2019-01-22T12:39:20.337Z,29.72
2019-01-22T12:41:51.103Z,30.00
2019-01-22T12:44:21.108Z,27.95
2019-01-22T12:46:50.805Z,27.82
2019-01-22T12:49:20.603Z,25.48
2019-01-22T12:51:51.981Z,25.70
2019-01-22T12:54:22.748Z,27.45
2019-01-22T12:56:52.570Z,26.93
2019-01-22T12:59:22.594Z,28.40
2019-01-22T13:01:52.935Z,28.57
2019-01-22T13:04:24.480Z,28.27
2019-01-22T13:06:54.146Z,24.63
2019-01-22T13:09:23.853Z,24.50
2019-01-22T13:11:54.239Z,25.08
2019-01-22T13:14:24.803Z,23.18
2019-01-22T13:16:55.835Z,24.63
2019-01-22T13:19:26.416Z,23.32
2019-01-22T13:21:56.334Z,25.05
2019-01-22T13:24:26.580Z,25.17
2019-01-22T13:26:56.679Z,23.57
2019-01-22T13:29:30.185Z,26.57
2019-01-22T13:31:59.953Z,27.10
2019-01-22T13:34:30.564Z,25.97
2019-01-22T13:37:00.175Z,25.77
2019-01-22T13:39:30.891Z,22.55
2019-01-22T13:42:01.036Z,24.20
2019-01-22T13:44:31.576Z,25.17
2019-01-22T13:47:04.296Z,23.83
2019-01-22T13:49:35.047Z,25.08
2019-01-22T13:52:06.370Z,26.82
2019-01-22T13:54:36.081Z,25.52
2019-01-22T13:57:06.189Z,26.50
2019-01-22T13:59:36.796Z,23.90
2019-01-22T14:02:07.113Z,25.08
2019-01-22T14:04:37.408Z,25.30
2019-01-22T14:07:07.767Z,24.90
2019-01-22T14:09:40.231Z,26.55
2019-01-22T14:12:10.170Z,26.10
2019-01-22T14:14:40.573Z,26.27
2019-01-22T14:17:11.818Z,26.50
2019-01-22T14:19:44.024Z,23.87
2019-01-22T14:22:13.939Z,27.40
2019-01-22T14:24:46.043Z,25.15
2019-01-22T14:27:15.885Z,30.02
2019-01-22T14:29:46.968Z,26.57
2019-01-22T14:32:16.741Z,29.48
2019-01-22T14:34:49.453Z,27.80
2019-01-22T14:37:20.514Z,26.85
2019-01-22T14:39:51.560Z,26.20
2019-01-22T14:42:23.362Z,27.35
2019-01-22T14:44:53.891Z,25.12
2019-01-22T14:47:24.765Z,27.65
2019-01-22T14:50:00.694Z,29.85
2019-01-22T14:52:31.526Z,27.05
2019-01-22T14:55:02.264Z,27.62
2019-01-22T14:57:33.251Z,25.37
2019-01-22T15:00:06.385Z,26.25
2019-01-22T15:02:36.443Z,25.68
2019-01-22T15:05:07.328Z,23.38
2019-01-22T15:07:38.656Z,29.35
2019-01-22T15:10:10.138Z,26.33
2019-01-22T15:12:40.524Z,25.17
2019-01-22T15:15:12.092Z,26.48
2019-01-22T15:17:42.031Z,27.58
2019-01-22T15:20:14.975Z,26.37
2019-01-22T15:22:45.116Z,29.27
2019-01-22T15:25:15.290Z,24.75
2019-01-22T15:27:45.757Z,26.45
2019-01-22T15:30:23.064Z,26.80
2019-01-22T15:32:53.745Z,27.48
2019-01-22T15:35:25.192Z,28.30
2019-01-22T15:37:55.227Z,26.80
2019-01-22T15:40:26.493Z,26.50
2019-01-22T15:42:56.303Z,29.20
2019-01-22T15:45:27.792Z,24.60
2019-01-22T15:47:57.957Z,28.10
2019-01-22T15:50:27.985Z,28.47
2019-01-22T15:52:58.209Z,29.63
2019-01-22T15:55:31.423Z,28.55
2019-01-22T15:58:02.615Z,29.50
2019-01-22T16:00:33.085Z,27.77
2019-01-22T16:03:03.634Z,29.35
2019-01-22T16:05:33.557Z,29.72
2019-01-22T16:08:03.467Z,27.42
2019-01-22T16:10:35.325Z,27.37
2019-01-22T16:13:06.207Z,29.63
2019-01-22T16:15:36.584Z,24.92
2019-01-22T16:18:07.934Z,26.45
2019-01-22T16:20:37.613Z,28.57
2019-01-22T16:23:08.578Z,27.37
2019-01-22T16:25:38.287Z,26.45
2019-01-22T16:28:10.145Z,27.93
2019-01-22T16:30:40.453Z,28.23
2019-01-22T16:33:16.757Z,30.52
2019-01-22T16:35:46.511Z,27.65
2019-01-22T16:38:17.101Z,30.55
2019-01-22T16:40:46.871Z,28.07
2019-01-22T16:43:16.506Z,29.02
2019-01-22T16:45:46.600Z,28.00
2019-01-22T16:48:17.025Z,27.05
2019-01-22T16:50:47.384Z,27.62
2019-01-22T16:53:20.087Z,31.40
2019-01-22T16:55:50.089Z,22.67
2019-01-22T16:58:20.544Z,28.55
2019-01-22T17:00:51.249Z,27.62
2019-01-22T17:03:21.698Z,30.52
2019-01-22T17:05:51.352Z,28.73
2019-01-22T17:08:21.505Z,25.37
2019-01-22T17:10:51.752Z,24.45
2019-01-22T17:13:22.784Z,28.67
2019-01-22T17:15:52.711Z,28.32
2019-01-22T17:18:23.037Z,29.60
2019-01-22T17:20:53.936Z,30.95
2019-01-22T17:23:24.362Z,28.77
2019-01-22T17:25:54.212Z,30.92
2019-01-22T17:28:28.116Z,30.45
2019-01-22T17:30:59.106Z,28.95
2019-01-22T17:33:44.803Z,28.40
2019-01-22T17:36:14.531Z,28.42
2019-01-22T17:38:45.653Z,28.67
2019-01-22T17:41:15.468Z,30.50
2019-01-22T17:43:45.947Z,27.77
2019-01-22T17:46:18.357Z,30.65
2019-01-22T17:48:50.936Z,29.63
2019-01-22T17:51:22.429Z,28.62
2019-01-22T17:53:53.047Z,30.15
2019-01-22T17:56:30.897Z,29.12
2019-01-22T17:58:58.301Z,30.57
2019-01-22T18:01:28.447Z,28.95
2019-01-22T18:03:58.226Z,31.33
2019-01-22T18:06:28.553Z,31.27
2019-01-22T18:08:58.860Z,28.80
2019-01-22T18:11:29.415Z,31.12
2019-01-22T18:14:00.026Z,32.13
2019-01-22T18:16:30.982Z,29.15
2019-01-22T18:19:01.400Z,28.15
2019-01-22T18:21:31.404Z,33.00
2019-01-22T18:24:03.344Z,27.90
2019-01-22T18:26:33.863Z,29.60
2019-01-22T18:29:04.415Z,31.60
2019-01-22T18:31:34.484Z,30.02
2019-01-22T18:34:04.886Z,30.85
2019-01-22T18:36:34.974Z,28.10
2019-01-22T18:39:08.803Z,30.95
2019-01-22T18:41:39.848Z,29.95
2019-01-22T18:44:10.380Z,32.28
2019-01-22T18:46:40.289Z,31.15
2019-01-22T18:49:10.000Z,33.88
2019-01-22T18:51:40.360Z,32.78
2019-01-22T18:54:10.063Z,28.67
2019-01-22T18:56:39.808Z,32.30
2019-01-22T18:59:10.382Z,31.57
2019-01-22T19:01:40.361Z,32.63
2019-01-22T19:04:11.436Z,33.02
2019-01-22T19:06:41.357Z,33.63
2019-01-22T19:09:11.944Z,32.25
2019-01-22T19:11:41.701Z,32.42
2019-01-22T19:14:14.082Z,32.05
2019-01-22T19:16:43.880Z,32.93
2019-01-22T19:19:13.695Z,32.28
2019-01-22T19:21:43.390Z,30.55
2019-01-22T19:24:14.173Z,31.73
2019-01-22T19:26:43.924Z,32.28
2019-01-22T19:29:14.652Z,29.25
2019-01-22T19:31:44.496Z,31.35
2019-01-22T19:34:14.294Z,31.33
2019-01-22T19:36:43.967Z,32.95
2019-01-22T19:39:13.957Z,31.40
2019-01-22T19:41:43.626Z,31.87
2019-01-22T19:44:13.520Z,32.63
2019-01-22T19:46:43.644Z,30.00
2019-01-22T19:49:13.978Z,28.95
2019-01-22T19:51:43.788Z,30.45
2019-01-22T19:54:14.191Z,29.60
2019-01-22T19:56:44.078Z,33.92
2019-01-22T19:59:14.508Z,30.20
2019-01-22T20:01:44.389Z,31.90
2019-01-22T20:04:15.151Z,33.00
2019-01-22T20:06:45.233Z,31.90
2019-01-22T20:09:14.944Z,31.68
2019-01-22T20:11:44.931Z,31.80
2019-01-22T20:14:14.579Z,30.82
2019-01-22T20:16:44.485Z,32.53
2019-01-22T20:19:14.815Z,33.53
2019-01-22T20:21:44.404Z,34.53
2019-01-22T20:24:17.016Z,32.55
2019-01-22T20:26:45.495Z,32.78
2019-01-22T20:29:16.226Z,32.15
2019-01-22T20:31:45.853Z,33.85
2019-01-22T20:34:16.257Z,33.10
2019-01-22T20:36:45.953Z,34.80
2019-01-22T20:39:16.452Z,35.45
2019-01-22T20:41:46.153Z,36.63
2019-01-22T20:44:15.923Z,32.95
2019-01-22T20:46:45.705Z,32.48
2019-01-22T20:49:16.116Z,30.27
2019-01-22T20:51:46.666Z,31.73
2019-01-22T20:54:16.532Z,29.12
2019-01-22T20:56:46.362Z,31.45
2019-01-22T20:59:16.159Z,32.25
2019-01-22T21:01:47.451Z,32.98
2019-01-22T21:04:17.776Z,34.45
2019-01-22T21:06:47.736Z,31.87
2019-01-22T21:09:17.379Z,33.50
2019-01-22T21:11:47.254Z,33.40
2019-01-22T21:14:16.923Z,34.78
2019-01-22T21:16:47.531Z,29.63
2019-01-22T21:19:17.801Z,34.75
2019-01-22T21:21:47.393Z,34.20
2019-01-22T21:24:17.923Z,35.88
2019-01-22T21:26:47.492Z,37.78
2019-01-22T21:29:17.829Z,35.90
2019-01-22T21:31:47.657Z,33.30
2019-01-22T21:34:17.476Z,33.18
2019-01-22T21:36:47.392Z,35.88
2019-01-22T21:39:17.917Z,32.83
2019-01-22T21:41:48.751Z,35.78
2019-01-22T21:44:18.565Z,33.45
2019-01-22T21:46:50.090Z,38.33
2019-01-22T21:49:20.382Z,33.42
2019-01-22T21:51:50.125Z,34.48
2019-01-22T21:54:20.483Z,34.38
2019-01-22T21:56:50.528Z,33.80
2019-01-22T21:59:21.864Z,35.98
2019-01-22T22:01:51.552Z,34.65
2019-01-22T22:04:21.329Z,32.35
2019-01-22T22:06:52.107Z,34.18
2019-01-22T22:09:21.963Z,33.55
2019-01-22T22:11:51.723Z,31.85
2019-01-22T22:14:21.745Z,35.75
2019-01-22T22:16:51.482Z,30.23
2019-01-22T22:19:21.707Z,33.53
2019-01-22T22:21:51.487Z,34.95
2019-01-22T22:24:21.165Z,36.75
2019-01-22T22:26:50.877Z,32.75
2019-01-22T22:29:20.552Z,32.67
2019-01-22T22:31:50.216Z,35.13
2019-01-22T22:34:20.012Z,34.50
2019-01-22T22:36:49.989Z,34.70
2019-01-22T22:39:20.368Z,34.15
2019-01-22T22:41:50.021Z,35.98
2019-01-22T22:44:20.147Z,33.78
2019-01-22T22:46:49.815Z,34.83
2019-01-22T22:49:19.857Z,35.33
2019-01-22T22:51:50.468Z,36.45
2019-01-22T22:54:20.876Z,35.25
2019-01-22T22:56:50.534Z,36.30
2019-01-22T22:59:20.271Z,34.15
2019-01-22T23:01:50.899Z,33.98
2019-01-22T23:04:20.867Z,31.33
2019-01-22T23:06:51.294Z,35.05
2019-01-22T23:09:21.707Z,29.57
2019-01-22T23:11:51.389Z,33.53
2019-01-22T23:14:21.146Z,32.67
2019-01-22T23:16:50.783Z,33.88
2019-01-22T23:19:20.962Z,36.05
2019-01-22T23:21:50.773Z,35.15
2019-01-22T23:24:21.518Z,36.88
2019-01-22T23:26:51.223Z,36.10
2019-01-22T23:29:21.330Z,34.85
2019-01-22T23:31:51.566Z,35.55
2019-01-22T23:34:21.570Z,36.85
2019-01-22T23:36:51.343Z,35.68
2019-01-22T23:39:21.931Z,34.78
2019-01-22T23:41:51.720Z,35.48
2019-01-22T23:44:21.871Z,34.15
2019-01-22T23:46:52.171Z,35.17
2019-01-22T23:49:21.791Z,34.75
2019-01-22T23:51:52.710Z,32.83
2019-01-22T23:54:23.144Z,30.52
2019-01-22T23:56:52.892Z,33.33
2019-01-22T23:59:22.667Z,32.67
